createdAt,value
2022-10-21T00:01:08.133Z,9.70
2022-10-21T00:03:36.295Z,9.95
2022-10-21T00:06:04.879Z,9.55
2022-10-21T00:08:32.706Z,9.63
2022-10-21T00:11:02.470Z,11.07
2022-10-21T00:13:31.613Z,8.68
2022-10-21T00:16:06.128Z,10.40
2022-10-21T00:18:36.650Z,9.77
2022-10-21T00:21:18.077Z,8.95
2022-10-21T00:23:57.715Z,9.82
2022-10-21T00:26:25.511Z,9.45
2022-10-21T00:28:57.280Z,9.15
2022-10-21T00:31:25.860Z,8.85
2022-10-21T00:33:56.069Z,8.82
2022-10-21T00:36:23.615Z,9.57
2022-10-21T00:38:51.098Z,8.95
2022-10-21T00:41:20.130Z,10.05
2022-10-21T00:43:59.213Z,10.57
2022-10-21T00:46:34.949Z,9.93
2022-10-21T00:49:07.570Z,9.45
2022-10-21T00:51:35.803Z,9.40
2022-10-21T00:54:04.590Z,9.63
2022-10-21T00:56:34.387Z,9.20
2022-10-21T00:59:03.952Z,11.30
2022-10-21T01:01:34.096Z,9.70
2022-10-21T01:04:05.892Z,9.52
2022-10-21T01:06:35.430Z,9.13
2022-10-21T01:09:05.553Z,9.63
2022-10-21T01:11:40.733Z,9.18
2022-10-21T01:14:26.870Z,10.43
2022-10-21T01:17:26.254Z,9.55
2022-10-21T01:20:26.990Z,9.45
2022-10-21T01:23:31.456Z,10.45
2022-10-21T01:26:39.322Z,9.80
2022-10-21T01:29:33.193Z,11.38
2022-10-21T01:32:21.074Z,10.05
2022-10-21T01:35:11.632Z,9.50
2022-10-21T01:38:04.177Z,10.43
2022-10-21T01:40:45.396Z,10.10
2022-10-21T01:43:30.975Z,8.98
2022-10-21T01:46:14.667Z,9.45
2022-10-21T01:51:16.799Z,9.93
2022-10-21T01:53:51.419Z,9.13
2022-10-21T01:56:20.459Z,10.20
2022-10-21T01:58:49.432Z,9.40
2022-10-21T02:01:21.721Z,9.77
2022-10-21T02:03:58.265Z,8.57
2022-10-21T02:06:27.135Z,8.93
2022-10-21T02:08:55.032Z,9.93
2022-10-21T02:11:28.066Z,11.05
2022-10-21T02:14:06.329Z,8.95
2022-10-21T02:16:40.132Z,10.27
2022-10-21T02:19:18.114Z,10.18
2022-10-21T02:21:48.523Z,10.23
2022-10-21T02:24:35.990Z,11.10
2022-10-21T02:27:06.167Z,10.95
2022-10-21T02:29:37.410Z,9.63
2022-10-21T02:32:42.905Z,9.75
2022-10-21T02:35:13.302Z,9.27
2022-10-21T02:37:48.797Z,9.68
2022-10-21T02:40:22.679Z,9.82
2022-10-21T02:42:55.622Z,9.57
2022-10-21T02:45:26.131Z,9.02
2022-10-21T02:47:53.546Z,9.43
2022-10-21T02:50:21.123Z,10.63
2022-10-21T02:52:48.862Z,10.02
2022-10-21T02:55:16.448Z,9.60
2022-10-21T02:57:44.013Z,8.77
2022-10-21T03:00:12.410Z,12.55
2022-10-21T03:02:42.330Z,9.07
2022-10-21T03:05:10.527Z,9.13
2022-10-21T03:07:41.365Z,9.90
2022-10-21T03:10:09.537Z,8.80
2022-10-21T03:12:37.070Z,10.68
2022-10-21T03:15:04.898Z,9.07
2022-10-21T03:17:32.321Z,9.95
2022-10-21T03:20:04.982Z,11.98
2022-10-21T03:22:38.239Z,12.47
2022-10-21T03:25:06.468Z,8.48
2022-10-21T03:27:33.909Z,10.82
2022-10-21T03:30:08.503Z,9.75
2022-10-21T03:32:36.177Z,9.75
2022-10-21T03:35:04.154Z,9.15
2022-10-21T03:37:31.662Z,8.82
2022-10-21T03:39:59.054Z,9.60
2022-10-21T03:42:28.094Z,10.90
2022-10-21T03:45:00.866Z,10.68
2022-10-21T03:47:28.544Z,10.18
2022-10-21T03:49:58.566Z,9.05
2022-10-21T03:52:26.190Z,8.50
2022-10-21T03:54:53.637Z,9.10
2022-10-21T03:57:23.510Z,10.50
2022-10-21T03:59:54.073Z,10.20
2022-10-21T04:02:24.429Z,9.10
2022-10-21T04:04:52.144Z,8.68
2022-10-21T04:07:22.389Z,9.88
2022-10-21T04:09:49.731Z,10.23
2022-10-21T04:12:17.207Z,10.05
2022-10-21T04:14:44.885Z,10.10
2022-10-21T04:17:12.432Z,10.13
2022-10-21T04:19:42.966Z,10.45
2022-10-21T04:22:10.743Z,9.20
2022-10-21T04:24:38.090Z,9.50
2022-10-21T04:27:11.150Z,11.38
2022-10-21T04:29:41.085Z,8.90
2022-10-21T04:32:08.570Z,10.32
2022-10-21T04:34:35.989Z,9.70
2022-10-21T04:37:05.184Z,9.48
2022-10-21T04:39:33.273Z,9.13
2022-10-21T04:42:04.282Z,9.30
2022-10-21T04:44:35.029Z,8.93
2022-10-21T04:47:04.611Z,10.02
2022-10-21T04:49:32.163Z,9.65
2022-10-21T04:52:01.760Z,9.50
2022-10-21T04:54:31.491Z,9.07
2022-10-21T04:57:02.159Z,9.23
2022-10-21T04:59:29.670Z,9.38
2022-10-21T05:01:59.484Z,9.50
2022-10-21T05:04:27.015Z,9.93
2022-10-21T05:06:54.509Z,10.55
2022-10-21T05:09:21.869Z,10.30
2022-10-21T05:11:54.966Z,10.63
2022-10-21T05:14:23.054Z,8.82
2022-10-21T05:16:51.208Z,9.90
2022-10-21T05:19:19.898Z,9.73
2022-10-21T05:21:47.625Z,9.52
2022-10-21T05:24:16.377Z,10.32
2022-10-21T05:26:44.078Z,10.00
2022-10-21T05:29:11.818Z,10.15
2022-10-21T05:31:39.506Z,10.55
2022-10-21T05:34:10.392Z,10.32
2022-10-21T05:36:38.073Z,10.15
2022-10-21T05:39:11.647Z,8.80
2022-10-21T05:44:11.293Z,10.18
2022-10-21T05:46:39.020Z,9.95
2022-10-21T05:49:07.069Z,9.98
2022-10-21T05:51:34.636Z,11.40
2022-10-21T05:54:03.989Z,9.15
2022-10-21T05:56:32.372Z,9.82
2022-10-21T05:59:04.460Z,11.98
2022-10-21T06:01:34.544Z,10.32
2022-10-21T06:04:05.565Z,10.02
2022-10-21T06:06:35.536Z,9.80
2022-10-21T06:09:03.734Z,9.88
2022-10-21T06:11:31.852Z,10.68
2022-10-21T06:14:00.225Z,12.20
2022-10-21T06:16:27.610Z,9.43
2022-10-21T06:18:58.091Z,10.18
2022-10-21T06:21:26.578Z,10.15
2022-10-21T06:23:56.814Z,10.65
2022-10-21T06:26:24.290Z,10.68
2022-10-21T06:28:51.740Z,9.57
2022-10-21T06:31:21.779Z,10.15
2022-10-21T06:33:50.161Z,10.30
2022-10-21T06:36:17.640Z,10.10
2022-10-21T06:38:47.383Z,9.38
2022-10-21T06:41:15.786Z,9.88
2022-10-21T06:43:46.456Z,11.10
2022-10-21T06:46:15.617Z,10.00
2022-10-21T06:48:43.542Z,9.85
2022-10-21T06:51:16.259Z,9.48
2022-10-21T06:53:45.291Z,11.35
2022-10-21T06:56:19.982Z,11.23
2022-10-21T06:58:49.961Z,11.30
2022-10-21T07:01:41.769Z,10.05
2022-10-21T07:04:32.186Z,10.57
2022-10-21T07:07:00.007Z,10.02
2022-10-21T07:09:30.845Z,9.82
2022-10-21T07:12:05.028Z,11.35
2022-10-21T07:14:39.303Z,11.88
2022-10-21T07:17:10.303Z,10.90
2022-10-21T07:19:44.904Z,10.07
2022-10-21T07:22:18.127Z,12.35
2022-10-21T07:24:48.590Z,12.27
2022-10-21T07:27:19.845Z,11.85
2022-10-21T07:29:50.978Z,11.77
2022-10-21T07:32:22.370Z,11.13
2022-10-21T07:34:54.268Z,11.32
2022-10-21T07:37:22.725Z,10.93
2022-10-21T07:39:54.913Z,11.88
2022-10-21T07:42:31.481Z,10.82
2022-10-21T07:45:12.176Z,9.70
2022-10-21T07:47:40.391Z,10.27
2022-10-21T07:50:21.305Z,11.48
2022-10-21T07:52:58.369Z,10.23
2022-10-21T07:55:35.007Z,10.15
2022-10-21T07:58:07.953Z,10.20
2022-10-21T08:00:36.028Z,11.13
2022-10-21T08:03:07.012Z,9.77
2022-10-21T08:05:37.316Z,10.65
2022-10-21T08:08:08.078Z,11.80
2022-10-21T08:10:46.349Z,9.85
2022-10-21T08:13:20.553Z,11.85
2022-10-21T08:15:53.580Z,10.23
2022-10-21T08:18:27.417Z,11.18
2022-10-21T08:20:57.508Z,10.70
2022-10-21T08:23:26.681Z,12.70
2022-10-21T08:26:00.979Z,13.80
2022-10-21T08:28:36.329Z,13.15
2022-10-21T08:31:11.017Z,11.25
2022-10-21T08:33:42.359Z,10.48
2022-10-21T08:36:17.567Z,11.50
2022-10-21T08:38:46.720Z,11.38
2022-10-21T08:41:32.549Z,11.43
2022-10-21T08:44:22.925Z,10.65
2022-10-21T08:47:07.302Z,10.88
2022-10-21T08:50:30.681Z,14.20
2022-10-21T08:53:21.442Z,12.38
2022-10-21T08:56:05.484Z,15.25
2022-10-21T08:58:34.238Z,15.70
2022-10-21T09:01:22.914Z,21.33
2022-10-21T09:04:15.655Z,28.60
2022-10-21T09:07:07.324Z,25.55
2022-10-21T09:09:54.351Z,37.70
2022-10-21T09:12:43.550Z,39.13
2022-10-21T09:15:26.243Z,41.67
2022-10-21T09:18:10.066Z,60.15
2022-10-21T09:20:43.933Z,60.92
2022-10-21T09:23:37.627Z,71.93
2022-10-21T09:26:16.996Z,88.82
2022-10-21T09:28:47.041Z,99.35
2022-10-21T09:31:21.688Z,111.53
2022-10-21T09:33:59.870Z,118.43
2022-10-21T09:36:48.118Z,110.95
2022-10-21T09:39:48.907Z,100.22
2022-10-21T09:42:42.731Z,103.68
2022-10-21T09:45:27.801Z,100.07
2022-10-21T09:48:23.547Z,98.53
2022-10-21T09:50:59.002Z,95.82
2022-10-21T09:53:34.678Z,95.60
2022-10-21T09:56:13.681Z,91.22
2022-10-21T09:58:41.187Z,88.10
2022-10-21T10:01:09.419Z,84.25
2022-10-21T10:03:48.301Z,83.85
2022-10-21T10:06:42.690Z,74.63
2022-10-21T10:09:31.029Z,72.25
2022-10-21T10:12:20.600Z,69.10
2022-10-21T10:14:54.124Z,66.32
2022-10-21T10:17:39.931Z,67.40
2022-10-21T10:20:18.925Z,64.97
2022-10-21T10:22:59.078Z,61.70
2022-10-21T10:25:38.938Z,62.03
2022-10-21T10:28:11.703Z,62.25
2022-10-21T10:30:42.304Z,65.47
2022-10-21T10:33:17.383Z,63.55
2022-10-21T10:35:52.864Z,65.07
2022-10-21T10:38:27.405Z,59.33
2022-10-21T10:41:07.122Z,61.13
2022-10-21T10:43:43.588Z,53.70
2022-10-21T10:46:23.912Z,57.25
2022-10-21T10:48:58.121Z,54.15
2022-10-21T10:51:30.331Z,52.63
2022-10-21T10:54:07.048Z,52.63
2022-10-21T10:56:45.450Z,48.53
2022-10-21T10:59:39.517Z,50.08
2022-10-21T11:02:12.224Z,47.42
2022-10-21T11:05:18.291Z,48.53
2022-10-21T11:08:02.414Z,46.83
2022-10-21T11:10:46.355Z,41.67
2022-10-21T11:13:19.504Z,44.75
2022-10-21T11:16:12.102Z,37.88
2022-10-21T11:18:49.790Z,38.25
2022-10-21T11:21:46.607Z,36.83
2022-10-21T11:24:45.860Z,38.97
2022-10-21T11:27:39.185Z,36.25
2022-10-21T11:30:23.618Z,34.38
2022-10-21T11:33:10.971Z,33.28
2022-10-21T11:36:05.960Z,31.30
2022-10-21T11:39:04.278Z,34.95
2022-10-21T11:42:27.446Z,32.00
2022-10-21T11:45:17.801Z,28.27
2022-10-21T11:47:56.580Z,31.33
2022-10-21T11:50:33.293Z,28.88
2022-10-21T11:53:32.316Z,29.58
2022-10-21T11:56:31.067Z,32.05
2022-10-21T11:59:16.917Z,31.13
2022-10-21T12:02:05.348Z,33.10
2022-10-21T12:04:50.223Z,32.70
2022-10-21T12:07:27.678Z,32.63
2022-10-21T12:10:13.943Z,33.17
2022-10-21T12:12:46.945Z,32.85
2022-10-21T12:15:20.744Z,30.73
2022-10-21T12:17:55.767Z,32.92
2022-10-21T12:20:27.283Z,32.85
2022-10-21T12:23:01.475Z,30.13
2022-10-21T12:25:38.693Z,32.05
2022-10-21T12:28:29.691Z,30.58
2022-10-21T12:31:13.710Z,31.90
2022-10-21T12:33:45.457Z,27.42
2022-10-21T12:36:26.493Z,29.02
2022-10-21T12:38:59.544Z,28.58
2022-10-21T12:41:32.132Z,28.67
2022-10-21T12:44:13.873Z,28.10
2022-10-21T12:47:01.226Z,27.30
2022-10-21T12:49:36.630Z,25.17
2022-10-21T12:52:23.367Z,27.35
2022-10-21T12:55:08.028Z,25.10
2022-10-21T12:57:43.974Z,25.13
2022-10-21T13:00:27.167Z,26.15
2022-10-21T13:03:04.042Z,24.33
2022-10-21T13:05:37.680Z,23.60
2022-10-21T13:08:15.638Z,23.17
2022-10-21T13:11:08.457Z,23.23
2022-10-21T13:13:36.270Z,24.83
2022-10-21T13:16:16.992Z,23.45
2022-10-21T13:19:03.588Z,24.52
2022-10-21T13:21:47.402Z,25.83
2022-10-21T13:24:29.936Z,25.08
2022-10-21T13:27:24.441Z,23.95
2022-10-21T13:29:56.295Z,23.63
2022-10-21T13:32:34.799Z,24.02
2022-10-21T13:35:07.992Z,23.83
2022-10-21T13:37:54.878Z,24.13
2022-10-21T13:40:46.338Z,23.52
2022-10-21T13:43:19.083Z,24.27
2022-10-21T13:45:55.097Z,25.83
2022-10-21T13:48:26.386Z,27.20
2022-10-21T13:50:55.138Z,28.65
2022-10-21T13:53:38.715Z,28.00
2022-10-21T13:56:31.731Z,24.40
2022-10-21T13:59:11.127Z,25.63
2022-10-21T14:01:51.172Z,26.00
2022-10-21T14:04:30.621Z,24.90
2022-10-21T14:07:08.182Z,24.95
2022-10-21T14:09:49.844Z,25.45
2022-10-21T14:12:36.540Z,25.55
2022-10-21T14:15:19.438Z,23.23
2022-10-21T14:17:55.615Z,23.83
2022-10-21T14:20:35.044Z,26.42
2022-10-21T14:23:08.765Z,22.73
2022-10-21T14:25:36.940Z,27.63
2022-10-21T14:28:08.496Z,23.42
2022-10-21T14:30:41.997Z,23.90
2022-10-21T14:33:15.483Z,23.40
2022-10-21T14:38:55.808Z,23.77
2022-10-21T14:41:30.846Z,21.75
2022-10-21T14:44:07.753Z,24.02
2022-10-21T14:46:45.469Z,22.15
2022-10-21T14:49:35.217Z,23.45
2022-10-21T14:52:09.196Z,24.52
2022-10-21T14:54:58.150Z,26.13
2022-10-21T14:57:32.640Z,23.25
2022-10-21T15:00:03.297Z,24.83
2022-10-21T15:02:36.381Z,24.35
2022-10-21T15:05:33.542Z,23.15
2022-10-21T15:08:22.791Z,23.45
2022-10-21T15:11:08.254Z,22.63
2022-10-21T15:13:39.616Z,22.33
2022-10-21T15:16:25.069Z,20.48
2022-10-21T15:19:05.933Z,22.70
2022-10-21T15:22:03.743Z,21.35
2022-10-21T15:24:50.667Z,21.95
2022-10-21T15:27:28.268Z,21.75
2022-10-21T15:29:56.529Z,22.83
2022-10-21T15:32:30.456Z,21.35
2022-10-21T15:35:04.269Z,21.42
2022-10-21T15:37:31.770Z,22.58
2022-10-21T15:40:05.512Z,23.38
2022-10-21T15:42:35.959Z,27.02
2022-10-21T15:45:18.656Z,22.08
2022-10-21T15:47:59.194Z,21.33
2022-10-21T15:50:32.078Z,22.88
2022-10-21T15:53:03.018Z,23.23
2022-10-21T15:55:39.331Z,20.20
2022-10-21T15:58:10.882Z,22.25
2022-10-21T16:00:57.636Z,23.05
2022-10-21T16:03:52.522Z,22.42
2022-10-21T16:06:48.899Z,23.65
2022-10-21T16:09:47.034Z,23.10
2022-10-21T16:13:01.935Z,22.42
2022-10-21T16:15:54.613Z,23.02
2022-10-21T16:18:46.963Z,23.52
2022-10-21T16:21:47.831Z,23.38
2022-10-21T16:24:45.009Z,26.10
2022-10-21T16:27:55.660Z,21.92
2022-10-21T16:30:51.219Z,24.08
2022-10-21T16:34:00.152Z,21.45
2022-10-21T16:36:56.649Z,23.30
2022-10-21T16:39:48.640Z,21.25
2022-10-21T16:42:37.222Z,22.42
2022-10-21T16:45:22.645Z,20.95
2022-10-21T16:48:29.069Z,21.45
2022-10-21T16:51:18.516Z,21.88
2022-10-21T16:54:12.084Z,21.05
2022-10-21T16:57:00.341Z,22.23
2022-10-21T17:02:58.207Z,22.33
2022-10-21T17:08:46.691Z,21.98
2022-10-21T17:14:51.478Z,24.70
2022-10-21T17:18:03.977Z,26.50
2022-10-21T17:20:52.463Z,24.27
2022-10-21T17:30:03.615Z,29.35
2022-10-21T17:32:55.184Z,32.80
2022-10-21T17:35:51.793Z,32.47
2022-10-21T17:41:54.617Z,33.05
2022-10-21T17:45:04.110Z,33.50
2022-10-21T17:48:04.618Z,32.22
2022-10-21T17:50:57.747Z,32.42
2022-10-21T17:53:49.491Z,35.00
2022-10-21T17:56:45.258Z,34.70
2022-10-21T17:59:34.900Z,30.95
2022-10-21T18:05:16.246Z,35.00
2022-10-21T18:07:43.886Z,32.40
2022-10-21T18:10:17.284Z,32.95
2022-10-21T18:12:51.341Z,34.70
2022-10-21T18:15:22.485Z,35.55
2022-10-21T18:17:55.244Z,33.20
2022-10-21T18:20:25.809Z,34.15
2022-10-21T18:22:58.474Z,31.15
2022-10-21T18:25:29.599Z,34.85
2022-10-21T18:27:57.086Z,34.70
2022-10-21T18:30:29.612Z,32.63
2022-10-21T18:33:00.285Z,32.35
2022-10-21T18:35:33.818Z,34.80
2022-10-21T18:40:33.886Z,30.27
2022-10-21T18:43:07.370Z,31.52
2022-10-21T18:48:05.123Z,30.15
2022-10-21T18:50:38.333Z,29.67
2022-10-21T18:53:14.406Z,29.88
2022-10-21T18:55:49.051Z,29.98
2022-10-21T18:58:19.176Z,29.30
2022-10-21T19:00:46.757Z,28.80
2022-10-21T19:03:14.299Z,32.30
2022-10-21T19:05:47.472Z,29.25
2022-10-21T19:08:22.678Z,27.67
2022-10-21T19:10:50.330Z,28.20
2022-10-21T19:13:18.597Z,29.20
2022-10-21T19:15:53.287Z,29.17
2022-10-21T19:18:27.910Z,29.05
2022-10-21T19:20:57.693Z,29.75
2022-10-21T19:23:27.922Z,27.52
2022-10-21T19:25:56.772Z,27.33
2022-10-21T19:28:24.327Z,27.65
2022-10-21T19:30:53.275Z,26.77
2022-10-21T19:33:26.130Z,27.60
2022-10-21T19:35:54.691Z,26.75
2022-10-21T19:38:39.598Z,27.35
2022-10-21T19:41:12.636Z,27.57
2022-10-21T19:43:43.192Z,26.97
2022-10-21T19:46:19.955Z,26.60
2022-10-21T19:48:52.858Z,26.92
2022-10-21T19:51:22.682Z,28.27
2022-10-21T19:53:54.058Z,26.92
2022-10-21T19:56:29.543Z,25.48
2022-10-21T19:59:04.696Z,26.13
2022-10-21T20:01:36.932Z,29.80
2022-10-21T20:04:09.836Z,26.15
2022-10-21T20:06:40.252Z,27.05
2022-10-21T20:09:15.197Z,27.52
2022-10-21T20:11:46.070Z,28.40
2022-10-21T20:14:14.094Z,27.48
2022-10-21T20:16:44.702Z,25.48
2022-10-21T20:19:12.860Z,28.42
2022-10-21T20:21:41.592Z,28.75
2022-10-21T20:24:10.716Z,28.98
2022-10-21T20:26:40.678Z,29.50
2022-10-21T20:29:08.809Z,28.33
2022-10-21T20:31:41.783Z,29.38
2022-10-21T20:34:13.468Z,28.17
2022-10-21T20:36:45.580Z,29.30
2022-10-21T20:39:14.694Z,28.55
2022-10-21T20:41:47.327Z,28.10
2022-10-21T20:44:16.382Z,29.63
2022-10-21T20:46:45.459Z,27.55
2022-10-21T20:49:15.549Z,29.58
2022-10-21T20:51:44.182Z,28.77
2022-10-21T20:54:19.943Z,29.75
2022-10-21T20:56:53.096Z,29.38
2022-10-21T20:59:22.947Z,28.65
2022-10-21T21:01:50.493Z,31.33
2022-10-21T21:04:23.641Z,30.35
2022-10-21T21:06:52.331Z,31.42
2022-10-21T21:09:43.639Z,29.17
2022-10-21T21:12:12.075Z,30.98
2022-10-21T21:14:39.826Z,29.55
2022-10-21T21:17:09.728Z,30.73
2022-10-21T21:19:45.735Z,31.45
2022-10-21T21:22:13.195Z,31.33
2022-10-21T21:24:41.837Z,35.40
2022-10-21T21:27:12.396Z,31.63
2022-10-21T21:29:42.522Z,30.17
2022-10-21T21:32:12.626Z,31.23
2022-10-21T21:34:42.553Z,30.40
2022-10-21T21:37:12.516Z,32.13
2022-10-21T21:39:42.253Z,32.97
2022-10-21T21:42:14.732Z,33.50
2022-10-21T21:44:48.206Z,31.80
2022-10-21T21:47:18.516Z,30.25
2022-10-21T21:49:46.670Z,30.88
2022-10-21T21:52:18.094Z,32.63
2022-10-21T21:54:49.503Z,32.35
2022-10-21T21:57:33.851Z,31.48
2022-10-21T22:00:07.446Z,32.85
2022-10-21T22:05:05.726Z,32.85
2022-10-21T22:07:33.336Z,31.75
2022-10-21T22:10:03.277Z,33.35
2022-10-21T22:12:38.039Z,32.67
2022-10-21T22:15:13.637Z,29.48
2022-10-21T22:17:47.260Z,30.98
2022-10-21T22:20:18.357Z,31.85
2022-10-21T22:22:53.948Z,33.00
2022-10-21T22:25:28.517Z,32.58
2022-10-21T22:27:58.133Z,33.88
2022-10-21T22:30:28.118Z,36.03
2022-10-21T22:33:03.581Z,35.83
2022-10-21T22:35:31.124Z,39.03
2022-10-21T22:37:58.535Z,41.50
2022-10-21T22:40:28.182Z,45.28
2022-10-21T22:42:58.526Z,43.10
2022-10-21T22:45:26.820Z,46.22
2022-10-21T22:47:57.700Z,45.95
2022-10-21T22:50:25.142Z,47.45
2022-10-21T22:53:00.325Z,45.55
2022-10-21T22:55:30.879Z,45.95
2022-10-21T22:58:06.197Z,49.30
2022-10-21T23:00:34.087Z,50.30
2022-10-21T23:03:03.236Z,49.05
2022-10-21T23:05:38.801Z,48.30
2022-10-21T23:08:09.728Z,48.28
2022-10-21T23:10:38.604Z,48.33
2022-10-21T23:13:14.525Z,46.58
2022-10-21T23:15:41.968Z,46.97
2022-10-21T23:18:15.235Z,48.47
2022-10-21T23:20:48.278Z,47.72
2022-10-21T23:23:18.719Z,47.95
2022-10-21T23:25:46.284Z,44.63
2022-10-21T23:30:54.946Z,48.53
2022-10-21T23:33:25.858Z,45.08
2022-10-21T23:35:53.901Z,46.60
2022-10-21T23:38:24.097Z,47.75
2022-10-21T23:40:53.881Z,47.45
2022-10-21T23:43:21.975Z,47.92
2022-10-21T23:45:54.178Z,49.90
2022-10-21T23:48:27.277Z,50.53
2022-10-21T23:50:55.011Z,49.83
2022-10-21T23:53:25.715Z,49.33
2022-10-21T23:55:56.514Z,48.17
2022-10-21T23:58:24.026Z,46.45
